createdAt,value
2023-02-14T00:01:29.775Z,6.50
2023-02-14T00:04:01.054Z,6.50
2023-02-14T00:06:35.663Z,6.40
2023-02-14T00:09:03.399Z,6.40
2023-02-14T00:11:30.617Z,6.40
2023-02-14T00:14:16.718Z,6.40
2023-02-14T00:16:44.995Z,6.40
2023-02-14T00:19:14.584Z,6.40
2023-02-14T00:21:41.963Z,6.40
2023-02-14T00:24:15.134Z,6.40
2023-02-14T00:26:43.366Z,6.40
2023-02-14T00:29:13.820Z,6.40
2023-02-14T00:31:42.219Z,6.40
2023-02-14T00:34:10.952Z,6.50
2023-02-14T00:36:39.349Z,6.40
2023-02-14T00:39:08.710Z,6.40
2023-02-14T00:41:36.343Z,6.40
2023-02-14T00:44:03.932Z,6.40
2023-02-14T00:46:31.681Z,6.50
2023-02-14T00:48:59.240Z,6.40
2023-02-14T00:51:26.637Z,6.40
2023-02-14T00:53:54.272Z,6.40
2023-02-14T00:56:21.976Z,6.40
2023-02-14T00:58:49.615Z,6.40
2023-02-14T01:01:18.369Z,6.40
2023-02-14T01:03:45.986Z,6.40
2023-02-14T01:06:16.297Z,6.40
2023-02-14T01:08:43.611Z,6.40
2023-02-14T01:11:18.459Z,6.40
2023-02-14T01:13:46.639Z,6.40
2023-02-14T01:16:17.085Z,6.40
2023-02-14T01:18:44.954Z,6.40
2023-02-14T01:21:14.975Z,6.40
2023-02-14T01:23:43.533Z,6.40
2023-02-14T01:26:11.966Z,6.40
2023-02-14T01:28:40.471Z,6.40
2023-02-14T01:31:23.178Z,6.40
2023-02-14T01:33:51.150Z,6.40
2023-02-14T01:36:30.213Z,6.40
2023-02-14T01:38:59.801Z,6.30
2023-02-14T01:41:29.979Z,6.20
2023-02-14T01:44:03.535Z,6.20
2023-02-14T01:46:33.490Z,6.30
2023-02-14T01:49:14.879Z,6.30
2023-02-14T01:51:46.526Z,6.30
2023-02-14T01:54:14.081Z,6.30
2023-02-14T01:56:54.672Z,6.40
2023-02-14T01:59:27.527Z,6.40
2023-02-14T02:01:55.013Z,6.40
2023-02-14T02:04:38.365Z,6.30
2023-02-14T02:07:14.997Z,6.30
2023-02-14T02:09:50.921Z,6.20
2023-02-14T02:12:21.579Z,6.20
2023-02-14T02:14:52.564Z,6.20
2023-02-14T02:17:38.525Z,6.20
2023-02-14T02:20:20.955Z,6.20
2023-02-14T02:23:29.916Z,6.30
2023-02-14T02:26:08.701Z,6.20
2023-02-14T02:28:50.728Z,6.20
2023-02-14T02:31:35.277Z,6.30
2023-02-14T02:34:11.475Z,6.20
2023-02-14T02:37:11.053Z,6.20
2023-02-14T02:40:22.352Z,6.20
2023-02-14T02:43:03.932Z,6.20
2023-02-14T02:46:11.498Z,6.20
2023-02-14T02:48:46.874Z,6.10
2023-02-14T02:51:46.360Z,6.10
2023-02-14T02:57:58.751Z,6.10
2023-02-14T03:00:26.618Z,6.10
2023-02-14T03:03:15.477Z,6.10
2023-02-14T03:05:44.047Z,6.10
2023-02-14T03:08:11.333Z,6.10
2023-02-14T03:10:40.406Z,6.10
2023-02-14T03:13:45.107Z,6.10
2023-02-14T03:16:15.611Z,6.10
2023-02-14T03:18:55.817Z,6.10
2023-02-14T03:21:32.551Z,6.10
2023-02-14T03:24:15.686Z,6.10
2023-02-14T03:27:30.574Z,6.10
2023-02-14T03:30:10.504Z,6.10
2023-02-14T03:33:04.264Z,6.00
2023-02-14T03:35:47.978Z,6.00
2023-02-14T03:38:41.769Z,6.00
2023-02-14T03:41:14.222Z,6.00
2023-02-14T03:43:52.792Z,6.00
2023-02-14T03:46:55.321Z,6.00
2023-02-14T03:49:26.823Z,6.10
2023-02-14T03:51:56.408Z,6.10
2023-02-14T03:54:25.878Z,6.00
2023-02-14T03:57:08.998Z,6.00
2023-02-14T03:59:36.498Z,6.00
2023-02-14T04:02:10.027Z,6.00
2023-02-14T04:04:40.866Z,5.90
2023-02-14T04:07:20.170Z,5.90
2023-02-14T04:09:48.746Z,5.90
2023-02-14T04:12:19.849Z,5.90
2023-02-14T04:14:50.986Z,5.90
2023-02-14T04:17:39.293Z,5.90
2023-02-14T04:20:07.179Z,5.90
2023-02-14T04:22:34.429Z,5.90
2023-02-14T04:25:01.732Z,5.90
2023-02-14T04:27:29.252Z,5.90
2023-02-14T04:29:56.502Z,5.90
2023-02-14T04:32:23.816Z,5.90
2023-02-14T04:34:51.110Z,5.90
2023-02-14T04:37:20.101Z,5.90
2023-02-14T04:39:47.534Z,5.90
2023-02-14T04:42:15.324Z,5.90
2023-02-14T04:44:42.699Z,5.90
2023-02-14T04:47:10.484Z,5.80
2023-02-14T04:49:37.678Z,5.80
2023-02-14T04:52:06.269Z,5.80
2023-02-14T04:54:33.666Z,5.90
2023-02-14T04:57:00.950Z,5.80
2023-02-14T04:59:28.644Z,5.80
2023-02-14T05:01:56.036Z,5.80
2023-02-14T05:04:23.547Z,5.80
2023-02-14T05:06:51.162Z,5.80
2023-02-14T05:09:24.861Z,5.80
2023-02-14T05:11:52.565Z,5.80
2023-02-14T05:14:19.720Z,5.70
2023-02-14T05:16:47.645Z,5.70
2023-02-14T05:19:14.899Z,5.70
2023-02-14T05:21:42.116Z,5.70
2023-02-14T05:24:09.283Z,5.70
2023-02-14T05:26:36.765Z,5.80
2023-02-14T05:29:04.132Z,5.80
2023-02-14T05:31:31.472Z,5.80
2023-02-14T05:33:58.753Z,5.80
2023-02-14T05:36:25.985Z,5.80
2023-02-14T05:38:53.298Z,5.80
2023-02-14T05:41:21.319Z,5.70
2023-02-14T05:43:48.446Z,5.70
2023-02-14T05:46:15.954Z,5.70
2023-02-14T05:48:43.327Z,5.70
2023-02-14T05:51:11.298Z,5.70
2023-02-14T05:53:39.245Z,5.70
2023-02-14T05:56:07.134Z,5.70
2023-02-14T05:58:37.814Z,5.70
2023-02-14T06:01:05.288Z,5.70
2023-02-14T06:03:32.566Z,5.70
2023-02-14T06:05:59.753Z,5.70
2023-02-14T06:08:27.514Z,5.70
2023-02-14T06:10:54.718Z,5.70
2023-02-14T06:13:25.353Z,5.80
2023-02-14T06:15:54.994Z,5.70
2023-02-14T06:18:22.443Z,5.70
2023-02-14T06:20:50.108Z,5.80
2023-02-14T06:23:17.897Z,5.70
2023-02-14T06:25:45.025Z,5.70
2023-02-14T06:28:13.477Z,5.70
2023-02-14T06:30:40.862Z,5.70
2023-02-14T06:33:08.108Z,5.70
2023-02-14T06:35:35.396Z,5.70
2023-02-14T06:38:02.686Z,5.70
2023-02-14T06:40:32.967Z,5.70
2023-02-14T06:43:00.124Z,5.70
2023-02-14T06:45:27.406Z,5.70
2023-02-14T06:47:54.585Z,5.70
2023-02-14T06:50:26.973Z,5.70
2023-02-14T06:52:54.328Z,5.70
2023-02-14T06:55:21.604Z,5.60
2023-02-14T06:57:48.969Z,5.60
2023-02-14T07:00:16.566Z,5.60
2023-02-14T07:02:43.937Z,5.60
2023-02-14T07:05:11.340Z,5.60
2023-02-14T07:07:38.712Z,5.60
2023-02-14T07:10:06.599Z,5.60
2023-02-14T07:12:37.145Z,5.60
2023-02-14T07:15:07.651Z,5.60
2023-02-14T07:17:35.344Z,5.70
2023-02-14T07:20:02.984Z,5.70
2023-02-14T07:22:30.549Z,5.70
2023-02-14T07:25:00.401Z,5.80
2023-02-14T07:27:27.698Z,5.80
2023-02-14T07:29:55.842Z,5.80
2023-02-14T07:32:23.887Z,5.80
2023-02-14T07:34:53.587Z,5.90
2023-02-14T07:37:21.477Z,5.80
2023-02-14T07:39:49.235Z,5.90
2023-02-14T07:42:16.978Z,5.90
2023-02-14T07:44:45.930Z,5.90
2023-02-14T07:47:13.834Z,5.90
2023-02-14T07:49:41.223Z,6.00
2023-02-14T07:52:08.892Z,6.00
2023-02-14T07:54:36.305Z,6.00
2023-02-14T07:57:03.632Z,6.00
2023-02-14T07:59:30.911Z,6.10
2023-02-14T08:01:58.467Z,6.10
2023-02-14T08:04:26.366Z,6.10
2023-02-14T08:06:57.268Z,6.10
2023-02-14T08:09:27.559Z,6.10
2023-02-14T08:12:14.829Z,6.20
2023-02-14T08:14:43.363Z,6.20
2023-02-14T08:17:13.781Z,6.10
2023-02-14T08:19:41.314Z,6.20
2023-02-14T08:22:08.925Z,6.20
2023-02-14T08:24:36.362Z,6.20
2023-02-14T08:27:04.534Z,6.20
2023-02-14T08:29:31.852Z,6.20
2023-02-14T08:32:00.766Z,6.20
2023-02-14T08:34:28.130Z,6.20
2023-02-14T08:36:55.430Z,6.30
2023-02-14T08:39:22.665Z,6.40
2023-02-14T08:41:49.949Z,6.40
2023-02-14T08:44:17.165Z,6.40
2023-02-14T08:46:45.608Z,6.40
2023-02-14T08:49:12.878Z,6.50
2023-02-14T08:51:40.189Z,6.50
2023-02-14T08:54:07.402Z,6.50
2023-02-14T08:56:35.626Z,6.50
2023-02-14T08:59:02.778Z,6.50
2023-02-14T09:01:30.289Z,6.60
2023-02-14T09:04:02.250Z,6.70
2023-02-14T09:06:29.763Z,6.70
2023-02-14T09:08:57.107Z,6.80
2023-02-14T09:11:25.465Z,6.80
2023-02-14T09:13:53.558Z,6.90
2023-02-14T09:16:22.778Z,6.90
2023-02-14T09:18:50.329Z,6.90
2023-02-14T09:21:19.969Z,6.90
2023-02-14T09:23:47.364Z,7.00
2023-02-14T09:26:18.363Z,7.10
2023-02-14T09:28:46.082Z,7.10
2023-02-14T09:31:14.849Z,7.20
2023-02-14T09:34:02.033Z,7.30
2023-02-14T09:36:29.101Z,7.30
2023-02-14T09:38:56.568Z,7.30
2023-02-14T09:41:29.971Z,7.30
2023-02-14T09:44:17.228Z,7.40
2023-02-14T09:46:50.919Z,7.40
2023-02-14T09:49:25.184Z,7.40
2023-02-14T09:51:53.866Z,7.40
2023-02-14T09:54:26.879Z,7.40
2023-02-14T09:57:24.587Z,7.40
2023-02-14T10:00:03.709Z,7.50
2023-02-14T10:02:49.215Z,7.50
2023-02-14T10:05:27.064Z,7.50
2023-02-14T10:07:57.822Z,7.60
2023-02-14T10:10:27.687Z,7.60
2023-02-14T10:13:07.026Z,7.60
2023-02-14T10:15:42.481Z,7.70
2023-02-14T10:18:22.777Z,7.70
2023-02-14T10:21:02.242Z,7.70
2023-02-14T10:23:35.445Z,7.80
2023-02-14T10:26:06.781Z,7.70
2023-02-14T10:28:52.430Z,7.80
2023-02-14T10:31:37.753Z,7.80
2023-02-14T10:34:09.391Z,7.80
2023-02-14T10:37:14.126Z,7.90
2023-02-14T10:40:02.323Z,7.90
2023-02-14T10:43:13.324Z,7.90
2023-02-14T10:46:03.953Z,7.90
2023-02-14T10:48:53.733Z,7.90
2023-02-14T10:51:34.085Z,8.00
2023-02-14T10:54:17.299Z,7.90
2023-02-14T10:56:52.255Z,7.90
2023-02-14T10:59:26.294Z,8.00
2023-02-14T11:01:55.500Z,8.00
2023-02-14T11:04:25.419Z,8.00
2023-02-14T11:06:54.077Z,8.00
2023-02-14T11:09:21.704Z,8.10
2023-02-14T11:11:57.669Z,8.10
2023-02-14T11:14:32.691Z,8.10
2023-02-14T11:17:01.370Z,8.20
2023-02-14T11:19:37.343Z,8.20
2023-02-14T11:22:05.069Z,8.20
2023-02-14T11:24:35.242Z,8.20
2023-02-14T11:27:08.348Z,8.20
2023-02-14T11:29:55.920Z,8.20
2023-02-14T11:32:31.870Z,8.30
2023-02-14T11:35:04.207Z,8.40
2023-02-14T11:37:44.136Z,8.40
2023-02-14T11:40:28.287Z,8.40
2023-02-14T11:43:13.517Z,8.40
2023-02-14T11:45:44.753Z,8.50
2023-02-14T11:48:31.485Z,8.50
2023-02-14T11:51:15.478Z,8.50
2023-02-14T11:53:52.555Z,8.50
2023-02-14T11:56:22.384Z,8.60
2023-02-14T11:58:55.989Z,8.60
2023-02-14T12:01:31.742Z,8.60
2023-02-14T12:04:03.638Z,8.70
2023-02-14T12:06:34.274Z,8.70
2023-02-14T12:09:23.543Z,8.70
2023-02-14T12:12:05.258Z,8.70
2023-02-14T12:14:35.809Z,8.80
2023-02-14T12:17:06.074Z,8.80
2023-02-14T12:19:56.087Z,8.80
2023-02-14T12:22:30.215Z,8.80
2023-02-14T12:25:10.539Z,8.80
2023-02-14T12:27:57.344Z,8.80
2023-02-14T12:30:27.356Z,8.90
2023-02-14T12:32:56.869Z,8.90
2023-02-14T12:35:59.992Z,8.90
2023-02-14T12:38:49.144Z,8.90
2023-02-14T12:41:28.490Z,8.90
2023-02-14T12:44:19.803Z,9.00
2023-02-14T12:47:15.332Z,9.00
2023-02-14T12:49:58.689Z,9.00
2023-02-14T12:52:50.631Z,9.10
2023-02-14T12:55:36.515Z,9.10
2023-02-14T12:58:34.005Z,9.10
2023-02-14T13:01:46.486Z,9.10
2023-02-14T13:04:31.107Z,9.10
2023-02-14T13:07:11.916Z,9.10
2023-02-14T13:10:00.051Z,9.20
2023-02-14T13:13:01.845Z,9.20
2023-02-14T13:15:45.721Z,9.20
2023-02-14T13:18:32.752Z,9.30
2023-02-14T13:21:03.701Z,9.30
2023-02-14T13:23:39.858Z,9.40
2023-02-14T13:26:18.197Z,9.40
2023-02-14T13:29:01.578Z,9.40
2023-02-14T13:31:29.073Z,9.50
2023-02-14T13:34:14.843Z,9.50
2023-02-14T13:36:42.682Z,9.50
2023-02-14T13:39:21.534Z,9.50
2023-02-14T13:41:48.938Z,9.50
2023-02-14T13:44:39.065Z,9.50
2023-02-14T13:47:08.243Z,9.50
2023-02-14T13:49:39.049Z,9.60
2023-02-14T13:52:06.900Z,9.60
2023-02-14T13:54:36.190Z,9.60
2023-02-14T13:57:38.532Z,9.60
2023-02-14T14:00:21.988Z,9.60
2023-02-14T14:02:55.015Z,9.60
2023-02-14T14:05:35.678Z,9.70
2023-02-14T14:08:21.416Z,9.70
2023-02-14T14:10:56.165Z,9.70
2023-02-14T14:13:43.180Z,9.80
2023-02-14T14:16:28.605Z,9.80
2023-02-14T14:18:59.489Z,9.80
2023-02-14T14:21:30.847Z,9.90
2023-02-14T14:24:15.111Z,10.00
2023-02-14T14:26:50.306Z,10.10
2023-02-14T14:29:26.081Z,10.00
2023-02-14T14:31:56.593Z,10.00
2023-02-14T14:34:27.003Z,9.90
2023-02-14T14:37:15.528Z,9.90
2023-02-14T14:39:42.908Z,9.90
2023-02-14T14:42:17.289Z,9.90
2023-02-14T14:44:54.956Z,9.90
2023-02-14T14:47:28.873Z,9.90
2023-02-14T14:50:04.405Z,9.80
2023-02-14T14:52:36.449Z,9.80
2023-02-14T14:55:07.161Z,9.80
2023-02-14T14:57:37.025Z,9.80
2023-02-14T15:00:27.764Z,9.80
2023-02-14T15:02:59.822Z,9.70
2023-02-14T15:05:34.905Z,9.70
2023-02-14T15:08:35.769Z,9.70
2023-02-14T15:11:39.867Z,9.70
2023-02-14T15:14:11.174Z,9.60
2023-02-14T15:17:01.777Z,9.60
2023-02-14T15:19:45.803Z,9.60
2023-02-14T15:22:42.324Z,9.60
2023-02-14T15:25:13.175Z,9.50
2023-02-14T15:27:43.157Z,9.50
2023-02-14T15:30:35.299Z,9.40
2023-02-14T15:33:03.953Z,9.40
2023-02-14T15:35:39.360Z,9.30
2023-02-14T15:38:10.549Z,9.30
2023-02-14T15:40:39.066Z,9.30
2023-02-14T15:43:25.375Z,9.20
2023-02-14T15:46:05.924Z,9.20
2023-02-14T15:48:34.813Z,9.20
2023-02-14T15:51:05.173Z,9.10
2023-02-14T15:53:58.623Z,9.10
2023-02-14T15:56:31.861Z,9.10
2023-02-14T15:59:07.441Z,9.00
2023-02-14T16:01:37.139Z,9.00
2023-02-14T16:04:07.221Z,8.90
2023-02-14T16:06:39.291Z,8.90
2023-02-14T16:09:27.102Z,8.80
2023-02-14T16:11:54.599Z,8.70
2023-02-14T16:14:32.633Z,8.70
2023-02-14T16:17:11.241Z,8.60
2023-02-14T16:19:43.828Z,8.60
2023-02-14T16:22:13.515Z,8.50
2023-02-14T16:24:42.319Z,8.50
2023-02-14T16:27:10.003Z,8.40
2023-02-14T16:29:37.364Z,8.30
2023-02-14T16:32:20.442Z,8.30
2023-02-14T16:34:48.606Z,8.20
2023-02-14T16:37:25.088Z,8.20
2023-02-14T16:39:57.837Z,8.10
2023-02-14T16:42:25.813Z,8.00
2023-02-14T16:44:53.282Z,8.00
2023-02-14T16:47:21.681Z,8.00
2023-02-14T16:49:50.964Z,7.90
2023-02-14T16:52:26.372Z,7.90
2023-02-14T16:54:53.755Z,7.80
2023-02-14T16:57:28.222Z,7.80
2023-02-14T16:59:57.009Z,7.70
2023-02-14T17:02:28.684Z,7.70
2023-02-14T17:04:56.660Z,7.70
2023-02-14T17:07:24.125Z,7.60
2023-02-14T17:09:56.341Z,7.60
2023-02-14T17:12:29.723Z,7.60
2023-02-14T17:15:02.523Z,7.60
2023-02-14T17:17:30.713Z,7.60
2023-02-14T17:19:58.201Z,7.60
2023-02-14T17:22:25.505Z,7.50
2023-02-14T17:24:55.123Z,7.50
2023-02-14T17:27:24.008Z,7.50
2023-02-14T17:29:52.302Z,7.50
2023-02-14T17:32:19.640Z,7.40
2023-02-14T17:34:47.025Z,7.40
2023-02-14T17:37:14.202Z,7.30
2023-02-14T17:39:41.378Z,7.30
2023-02-14T17:42:11.022Z,7.30
2023-02-14T17:44:40.220Z,7.20
2023-02-14T17:47:07.482Z,7.20
2023-02-14T17:49:34.709Z,7.10
2023-02-14T17:52:03.043Z,7.10
2023-02-14T17:54:37.475Z,7.10
2023-02-14T17:57:05.152Z,7.10
2023-02-14T17:59:33.233Z,7.10
2023-02-14T18:02:00.670Z,6.90
2023-02-14T18:04:30.429Z,6.90
2023-02-14T18:06:57.632Z,6.90
2023-02-14T18:09:26.067Z,6.80
2023-02-14T18:11:53.308Z,6.80
2023-02-14T18:14:20.722Z,6.80
2023-02-14T18:16:48.539Z,6.80
2023-02-14T18:19:19.209Z,6.70
2023-02-14T18:21:46.535Z,6.70
2023-02-14T18:24:15.833Z,6.70
2023-02-14T18:26:45.905Z,6.70
2023-02-14T18:29:13.808Z,6.60
2023-02-14T18:31:43.573Z,6.60
2023-02-14T18:34:11.372Z,6.60
2023-02-14T18:36:41.419Z,6.50
2023-02-14T18:39:10.796Z,6.50
2023-02-14T18:41:38.102Z,6.40
2023-02-14T18:44:06.304Z,6.40
2023-02-14T18:46:35.981Z,6.40
2023-02-14T18:49:08.755Z,6.40
2023-02-14T18:51:39.482Z,6.40
2023-02-14T18:54:07.639Z,6.30
2023-02-14T18:56:37.401Z,6.30
2023-02-14T18:59:09.998Z,6.30
2023-02-14T19:01:42.370Z,6.20
2023-02-14T19:04:12.472Z,6.20
2023-02-14T19:06:41.683Z,6.10
2023-02-14T19:09:14.157Z,6.10
2023-02-14T19:11:41.762Z,6.10
2023-02-14T19:14:10.554Z,6.00
2023-02-14T19:16:43.586Z,6.00
2023-02-14T19:19:11.819Z,5.90
2023-02-14T19:21:39.307Z,5.90
2023-02-14T19:24:07.521Z,5.80
2023-02-14T19:26:40.869Z,5.80
2023-02-14T19:29:15.239Z,5.80
2023-02-14T19:31:45.877Z,5.70
2023-02-14T19:34:19.536Z,5.70
2023-02-14T19:36:47.967Z,5.60
2023-02-14T19:39:16.120Z,5.60
2023-02-14T19:41:43.771Z,5.60
2023-02-14T19:44:14.439Z,5.60
2023-02-14T19:46:43.296Z,5.50
2023-02-14T19:49:15.589Z,5.50
2023-02-14T19:51:43.270Z,5.50
2023-02-14T19:54:16.115Z,5.50
2023-02-14T19:56:46.898Z,5.40
2023-02-14T19:59:20.382Z,5.40
2023-02-14T20:01:51.385Z,5.40
2023-02-14T20:04:27.420Z,5.30
2023-02-14T20:06:55.294Z,5.30
2023-02-14T20:09:23.934Z,5.30
2023-02-14T20:11:55.177Z,5.20
2023-02-14T20:14:27.136Z,5.20
2023-02-14T20:16:56.539Z,5.20
2023-02-14T20:19:29.721Z,5.20
2023-02-14T20:21:57.077Z,5.20
2023-02-14T20:24:27.436Z,5.20
2023-02-14T20:26:56.019Z,5.10
2023-02-14T20:29:25.165Z,5.10
2023-02-14T20:31:54.518Z,5.10
2023-02-14T20:34:22.412Z,5.10
2023-02-14T20:36:53.521Z,5.10
2023-02-14T20:39:23.833Z,5.00
2023-02-14T20:41:54.587Z,5.00
2023-02-14T20:44:23.402Z,5.00
2023-02-14T20:46:52.731Z,4.90
2023-02-14T20:49:21.427Z,4.90
2023-02-14T20:51:52.764Z,4.90
2023-02-14T20:54:22.798Z,4.90
2023-02-14T20:56:50.954Z,4.90
2023-02-14T20:59:29.155Z,4.90
2023-02-14T21:01:57.965Z,4.90
2023-02-14T21:04:25.763Z,4.80
2023-02-14T21:06:53.042Z,4.80
2023-02-14T21:09:21.369Z,4.70
2023-02-14T21:11:48.611Z,4.70
2023-02-14T21:14:17.601Z,4.70
2023-02-14T21:16:44.937Z,4.70
2023-02-14T21:19:12.281Z,4.70
2023-02-14T21:21:39.781Z,4.70
2023-02-14T21:24:16.987Z,4.70
2023-02-14T21:26:44.825Z,4.70
2023-02-14T21:29:12.266Z,4.70
2023-02-14T21:31:39.940Z,4.60
2023-02-14T21:34:10.028Z,4.60
2023-02-14T21:36:40.459Z,4.60
2023-02-14T21:39:08.209Z,4.60
2023-02-14T21:41:36.916Z,4.60
2023-02-14T21:44:05.097Z,4.50
2023-02-14T21:46:37.399Z,4.50
2023-02-14T21:49:24.474Z,4.50
2023-02-14T21:51:51.936Z,4.40
2023-02-14T21:54:19.431Z,4.50
2023-02-14T21:56:47.060Z,4.40
2023-02-14T21:59:14.583Z,4.40
2023-02-14T22:01:47.661Z,4.40
2023-02-14T22:04:15.128Z,4.30
2023-02-14T22:06:43.522Z,4.30
2023-02-14T22:09:13.257Z,4.30
2023-02-14T22:11:41.132Z,4.30
2023-02-14T22:14:08.748Z,4.30
2023-02-14T22:16:37.072Z,4.20
2023-02-14T22:19:05.603Z,4.20
2023-02-14T22:21:33.799Z,4.20
2023-02-14T22:24:01.830Z,4.20
2023-02-14T22:26:35.676Z,4.10
2023-02-14T22:29:03.509Z,4.10
2023-02-14T22:31:35.651Z,4.10
2023-02-14T22:34:04.948Z,4.10
2023-02-14T22:36:32.560Z,4.10
2023-02-14T22:39:00.184Z,4.00
2023-02-14T22:41:27.506Z,4.00
2023-02-14T22:43:56.305Z,3.90
2023-02-14T22:46:28.819Z,3.90
2023-02-14T22:48:57.027Z,3.90
2023-02-14T22:51:34.844Z,3.90
2023-02-14T22:54:05.228Z,3.90
2023-02-14T22:56:41.419Z,3.80
2023-02-14T22:59:17.887Z,3.90
2023-02-14T23:01:46.033Z,3.90
2023-02-14T23:04:19.063Z,3.80
2023-02-14T23:06:46.711Z,3.80
2023-02-14T23:09:14.970Z,3.80
2023-02-14T23:11:43.882Z,3.80
2023-02-14T23:14:31.570Z,3.80
2023-02-14T23:17:25.390Z,3.80
2023-02-14T23:20:11.653Z,3.80
2023-02-14T23:22:41.193Z,3.80
2023-02-14T23:25:11.890Z,3.70
2023-02-14T23:27:43.590Z,3.80
2023-02-14T23:30:14.602Z,3.70
2023-02-14T23:32:42.632Z,3.70
2023-02-14T23:35:11.296Z,3.70
2023-02-14T23:37:38.635Z,3.70
2023-02-14T23:40:08.766Z,3.70
2023-02-14T23:42:35.882Z,3.60
2023-02-14T23:45:21.545Z,3.60
2023-02-14T23:47:48.901Z,3.60
2023-02-14T23:50:16.469Z,3.60
2023-02-14T23:52:44.826Z,3.60
2023-02-14T23:55:12.844Z,3.60
2023-02-14T23:57:40.449Z,3.50
